KRFD

Chicago Rockford International Airport

Airport
ICAO code
KRFD
Summary
ICAO Region
NAM
ICAO Territory
Location

Rockford, Illinois,

Coordinates
42° 11' 48" N , 89° 6' 4" W
KCC
Airport CFIT
Altimeter Temperature Error Correction
Metar
Observation
KRFD 061554Z 14008KT 7SM OVC250 M03/M06 A3019 RMK AO2 SLP233 T10281061
Station
Rockford, Greater Rockford Airport
Date/Time
2023-02-06 15:54:00
Wind direction
140°
Wind speed
08 kts
Lowest cloud amount
overcast
Temperature
-2.8°C
Dew point
-6.1°C
Humidity
77%
Weather condition
n/a

Description

Chicago Rockford International Airport is a general aviation and commercial airport in Winnebago County, Illinois. It is located 6 km south of Rockford and 109 km northwest of Chicago.

Climatology

Humid continental climate (Köppen climate classification Dfa) - characterized by four seasons: cold, windy, snowy winters, mild springs, hot, humid summers, and crisp and relatively short autumns. Precipitation reaches its lowest in January and February and peaks in summer and latter half of spring.

Runways

Designator Length Width Surface Rops
1/19 2499 46 ASP Yes/Yes
7/25 3049 46 PEM Yes/Yes

Airport map

Aerial View

SKYbrary Partners:

Safety knowledge contributed by: